Weather at Sha Tin Airfield [CLOSED]

Public forecast

Using degrees Celsius for public forecast. Weather courtesy of forecast.io.

Closest aviation weather report (METAR) to Sha Tin Airfield

Closest report is Hong Kong International Airport, 15.9 nm (29.4 km) WSW. Retrieved 2020/10/26 00:30 UTC (0 seconds ago):

VHHH 260030Z 08008KT 9999 FEW023 25/18 Q1015 NOSIG

Closest aviation forecast (TAF) to Sha Tin Airfield

Closest forecast is Hong Kong International Airport, 15.9 nm (29.4 km) WSW. Retrieved 2020-10-26 00:22 UTC (0 seconds ago):

TAF VHHH 252300Z 2600/2706 07010KT 9999 FEW030 TX29/2606Z TX29/2706Z TN23/2622Z TEMPO 2604/2609 27010KT TEMPO 2609/2612 15010KT